NZQN/ZQN METAR and TAF weather

Enter ICAO airport designator
Station Type Date Time Source
NZQN METAR UTC NOAA

Error!


Station Type Date Time Source
NZQN Decoded METAR UTC NOAA

Error!

Station Type Date Time Source
NZQN TAF 2020/04/04 00:40 UTC NOAA

TAF
AMD NZQN 040040Z 0400/0411 26010KT 9999 SKC
BECMG 0406/0408 03005KT

Example: see airport list